sensor_id;sensor_type;location;lat;lon;timestamp;P1;durP1;ratioP1;P2;durP2;ratioP2
2928;SDS011;1474;51.460;7.150;2023-12-07T00:01:03;3.72;;;2.45;;
2928;SDS011;1474;51.460;7.150;2023-12-07T00:03:47;3.85;;;3.00;;
2928;SDS011;1474;51.460;7.150;2023-12-07T00:06:32;5.53;;;2.50;;
2928;SDS011;1474;51.460;7.150;2023-12-07T00:09:16;5.28;;;2.90;;
2928;SDS011;1474;51.460;7.150;2023-12-07T00:12:01;3.53;;;2.50;;
2928;SDS011;1474;51.460;7.150;2023-12-07T00:14:45;2.83;;;2.30;;
2928;SDS011;1474;51.460;7.150;2023-12-07T00:17:30;3.45;;;2.80;;
2928;SDS011;1474;51.460;7.150;2023-12-07T00:20:15;4.47;;;3.40;;
2928;SDS011;1474;51.460;7.150;2023-12-07T00:22:59;3.75;;;3.03;;
2928;SDS011;1474;51.460;7.150;2023-12-07T00:25:44;3.85;;;3.15;;
2928;SDS011;1474;51.460;7.150;2023-12-07T00:28:29;3.65;;;2.53;;
2928;SDS011;1474;51.460;7.150;2023-12-07T00:31:14;3.75;;;3.00;;
2928;SDS011;1474;51.460;7.150;2023-12-07T00:33:58;3.90;;;2.85;;
2928;SDS011;1474;51.460;7.150;2023-12-07T00:36:43;4.60;;;2.85;;
2928;SDS011;1474;51.460;7.150;2023-12-07T00:39:27;3.28;;;2.60;;
2928;SDS011;1474;51.460;7.150;2023-12-07T00:42:12;4.50;;;3.08;;
2928;SDS011;1474;51.460;7.150;2023-12-07T00:44:57;3.45;;;2.65;;
2928;SDS011;1474;51.460;7.150;2023-12-07T00:47:41;3.78;;;2.75;;
2928;SDS011;1474;51.460;7.150;2023-12-07T00:50:26;3.03;;;2.50;;
2928;SDS011;1474;51.460;7.150;2023-12-07T00:53:10;3.58;;;2.70;;
2928;SDS011;1474;51.460;7.150;2023-12-07T00:55:55;3.90;;;2.72;;
2928;SDS011;1474;51.460;7.150;2023-12-07T00:58:39;3.85;;;3.28;;
2928;SDS011;1474;51.460;7.150;2023-12-07T01:01:24;5.35;;;3.15;;
2928;SDS011;1474;51.460;7.150;2023-12-07T01:04:08;4.93;;;3.08;;
2928;SDS011;1474;51.460;7.150;2023-12-07T01:06:53;4.57;;;3.70;;
2928;SDS011;1474;51.460;7.150;2023-12-07T01:09:38;4.25;;;2.88;;
2928;SDS011;1474;51.460;7.150;2023-12-07T01:12:22;3.90;;;3.30;;
2928;SDS011;1474;51.460;7.150;2023-12-07T01:15:07;4.90;;;3.45;;
2928;SDS011;1474;51.460;7.150;2023-12-07T01:17:52;4.25;;;3.03;;
2928;SDS011;1474;51.460;7.150;2023-12-07T01:20:36;4.00;;;3.28;;
2928;SDS011;1474;51.460;7.150;2023-12-07T01:23:21;4.28;;;3.15;;
2928;SDS011;1474;51.460;7.150;2023-12-07T01:26:06;4.60;;;3.38;;
2928;SDS011;1474;51.460;7.150;2023-12-07T01:28:50;4.55;;;3.28;;
2928;SDS011;1474;51.460;7.150;2023-12-07T01:31:35;5.20;;;3.40;;
2928;SDS011;1474;51.460;7.150;2023-12-07T01:34:19;4.10;;;3.08;;
2928;SDS011;1474;51.460;7.150;2023-12-07T01:37:03;6.18;;;3.63;;
2928;SDS011;1474;51.460;7.150;2023-12-07T01:39:48;4.70;;;3.47;;
2928;SDS011;1474;51.460;7.150;2023-12-07T01:42:32;4.43;;;3.17;;
2928;SDS011;1474;51.460;7.150;2023-12-07T01:45:17;5.65;;;3.53;;
2928;SDS011;1474;51.460;7.150;2023-12-07T01:48:03;4.22;;;3.15;;
2928;SDS011;1474;51.460;7.150;2023-12-07T01:50:48;4.10;;;3.20;;
2928;SDS011;1474;51.460;7.150;2023-12-07T01:53:33;4.90;;;3.40;;
2928;SDS011;1474;51.460;7.150;2023-12-07T01:56:18;4.10;;;3.22;;
2928;SDS011;1474;51.460;7.150;2023-12-07T01:59:03;5.25;;;3.70;;
2928;SDS011;1474;51.460;7.150;2023-12-07T02:01:47;4.53;;;3.30;;
2928;SDS011;1474;51.460;7.150;2023-12-07T02:04:32;5.28;;;3.45;;
2928;SDS011;1474;51.460;7.150;2023-12-07T02:07:17;3.63;;;3.20;;
2928;SDS011;1474;51.460;7.150;2023-12-07T02:10:03;4.65;;;3.55;;
2928;SDS011;1474;51.460;7.150;2023-12-07T02:12:48;3.97;;;2.75;;
2928;SDS011;1474;51.460;7.150;2023-12-07T02:15:32;5.13;;;3.65;;
2928;SDS011;1474;51.460;7.150;2023-12-07T02:21:18;5.20;;;3.72;;
2928;SDS011;1474;51.460;7.150;2023-12-07T02:24:05;4.13;;;3.53;;
2928;SDS011;1474;51.460;7.150;2023-12-07T02:26:50;4.65;;;3.85;;
2928;SDS011;1474;51.460;7.150;2023-12-07T02:29:35;4.13;;;3.60;;
2928;SDS011;1474;51.460;7.150;2023-12-07T02:32:19;5.72;;;3.97;;
2928;SDS011;1474;51.460;7.150;2023-12-07T02:35:04;4.03;;;3.40;;
2928;SDS011;1474;51.460;7.150;2023-12-07T02:37:51;5.57;;;4.13;;
2928;SDS011;1474;51.460;7.150;2023-12-07T02:40:38;4.50;;;3.42;;
2928;SDS011;1474;51.460;7.150;2023-12-07T02:43:24;5.70;;;4.05;;
2928;SDS011;1474;51.460;7.150;2023-12-07T02:46:09;5.82;;;4.03;;
2928;SDS011;1474;51.460;7.150;2023-12-07T02:48:53;4.53;;;3.60;;
2928;SDS011;1474;51.460;7.150;2023-12-07T02:51:38;4.55;;;3.80;;
2928;SDS011;1474;51.460;7.150;2023-12-07T02:54:22;4.20;;;3.03;;
2928;SDS011;1474;51.460;7.150;2023-12-07T02:57:07;5.18;;;4.20;;
2928;SDS011;1474;51.460;7.150;2023-12-07T02:59:51;3.85;;;3.13;;
2928;SDS011;1474;51.460;7.150;2023-12-07T03:02:37;4.53;;;3.50;;
2928;SDS011;1474;51.460;7.150;2023-12-07T03:05:22;4.18;;;3.38;;
2928;SDS011;1474;51.460;7.150;2023-12-07T03:08:07;3.92;;;3.38;;
2928;SDS011;1474;51.460;7.150;2023-12-07T03:10:52;5.13;;;3.47;;
2928;SDS011;1474;51.460;7.150;2023-12-07T03:13:37;5.28;;;3.80;;
2928;SDS011;1474;51.460;7.150;2023-12-07T03:16:21;4.13;;;3.72;;
2928;SDS011;1474;51.460;7.150;2023-12-07T03:19:06;4.97;;;3.47;;
2928;SDS011;1474;51.460;7.150;2023-12-07T03:21:51;5.95;;;3.70;;
2928;SDS011;1474;51.460;7.150;2023-12-07T03:24:35;4.57;;;3.42;;
2928;SDS011;1474;51.460;7.150;2023-12-07T03:27:20;4.20;;;3.17;;
2928;SDS011;1474;51.460;7.150;2023-12-07T03:30:05;4.68;;;3.55;;
2928;SDS011;1474;51.460;7.150;2023-12-07T03:32:50;5.03;;;3.53;;
2928;SDS011;1474;51.460;7.150;2023-12-07T03:35:35;4.00;;;3.35;;
2928;SDS011;1474;51.460;7.150;2023-12-07T03:38:19;5.75;;;3.65;;
2928;SDS011;1474;51.460;7.150;2023-12-07T03:41:04;4.78;;;3.42;;
2928;SDS011;1474;51.460;7.150;2023-12-07T03:43:48;4.63;;;3.60;;
2928;SDS011;1474;51.460;7.150;2023-12-07T03:46:33;4.90;;;3.97;;
2928;SDS011;1474;51.460;7.150;2023-12-07T03:49:17;5.07;;;3.33;;
2928;SDS011;1474;51.460;7.150;2023-12-07T03:52:02;4.85;;;3.85;;
2928;SDS011;1474;51.460;7.150;2023-12-07T03:54:46;4.70;;;3.72;;
2928;SDS011;1474;51.460;7.150;2023-12-07T03:57:31;4.10;;;3.58;;
2928;SDS011;1474;51.460;7.150;2023-12-07T04:00:16;5.40;;;4.00;;
2928;SDS011;1474;51.460;7.150;2023-12-07T04:03:00;4.45;;;3.72;;
2928;SDS011;1474;51.460;7.150;2023-12-07T04:05:45;4.43;;;3.58;;
2928;SDS011;1474;51.460;7.150;2023-12-07T04:08:29;4.85;;;3.42;;
2928;SDS011;1474;51.460;7.150;2023-12-07T04:11:14;5.95;;;3.80;;
2928;SDS011;1474;51.460;7.150;2023-12-07T04:13:59;4.93;;;3.40;;
2928;SDS011;1474;51.460;7.150;2023-12-07T04:16:43;4.47;;;3.55;;
2928;SDS011;1474;51.460;7.150;2023-12-07T04:19:28;4.72;;;3.35;;
2928;SDS011;1474;51.460;7.150;2023-12-07T04:22:13;4.57;;;3.67;;
2928;SDS011;1474;51.460;7.150;2023-12-07T04:24:57;3.72;;;2.92;;
2928;SDS011;1474;51.460;7.150;2023-12-07T04:27:42;4.97;;;3.70;;
2928;SDS011;1474;51.460;7.150;2023-12-07T04:30:27;4.85;;;2.97;;
2928;SDS011;1474;51.460;7.150;2023-12-07T04:33:11;4.72;;;3.05;;
2928;SDS011;1474;51.460;7.150;2023-12-07T04:35:56;4.18;;;3.08;;
2928;SDS011;1474;51.460;7.150;2023-12-07T04:38:40;5.45;;;3.85;;
2928;SDS011;1474;51.460;7.150;2023-12-07T04:41:25;4.53;;;3.40;;
2928;SDS011;1474;51.460;7.150;2023-12-07T04:44:09;4.32;;;3.10;;
2928;SDS011;1474;51.460;7.150;2023-12-07T04:46:54;4.82;;;3.67;;
2928;SDS011;1474;51.460;7.150;2023-12-07T04:49:38;5.03;;;3.28;;
2928;SDS011;1474;51.460;7.150;2023-12-07T04:52:23;4.75;;;3.55;;
2928;SDS011;1474;51.460;7.150;2023-12-07T04:55:07;4.65;;;3.33;;
2928;SDS011;1474;51.460;7.150;2023-12-07T04:57:52;3.85;;;3.03;;
2928;SDS011;1474;51.460;7.150;2023-12-07T05:00:37;4.47;;;3.28;;
2928;SDS011;1474;51.460;7.150;2023-12-07T05:03:21;4.28;;;3.10;;
2928;SDS011;1474;51.460;7.150;2023-12-07T05:06:06;5.55;;;3.55;;
2928;SDS011;1474;51.460;7.150;2023-12-07T05:08:51;4.22;;;3.25;;
2928;SDS011;1474;51.460;7.150;2023-12-07T05:11:35;4.63;;;3.53;;
2928;SDS011;1474;51.460;7.150;2023-12-07T05:14:21;3.28;;;2.83;;
2928;SDS011;1474;51.460;7.150;2023-12-07T05:17:06;4.70;;;3.35;;
2928;SDS011;1474;51.460;7.150;2023-12-07T05:19:50;4.72;;;3.22;;
2928;SDS011;1474;51.460;7.150;2023-12-07T05:22:35;4.38;;;3.30;;
2928;SDS011;1474;51.460;7.150;2023-12-07T05:25:19;3.35;;;2.88;;
2928;SDS011;1474;51.460;7.150;2023-12-07T05:28:04;4.60;;;3.55;;
2928;SDS011;1474;51.460;7.150;2023-12-07T05:30:48;3.60;;;2.70;;
2928;SDS011;1474;51.460;7.150;2023-12-07T05:33:33;4.38;;;3.13;;
2928;SDS011;1474;51.460;7.150;2023-12-07T05:36:17;4.97;;;3.08;;
2928;SDS011;1474;51.460;7.150;2023-12-07T05:39:02;4.03;;;3.15;;
2928;SDS011;1474;51.460;7.150;2023-12-07T05:41:47;4.10;;;2.95;;
2928;SDS011;1474;51.460;7.150;2023-12-07T05:44:31;4.10;;;3.28;;
2928;SDS011;1474;51.460;7.150;2023-12-07T05:47:16;5.40;;;3.70;;
2928;SDS011;1474;51.460;7.150;2023-12-07T05:50:00;4.13;;;2.90;;
2928;SDS011;1474;51.460;7.150;2023-12-07T05:52:46;4.00;;;3.13;;
2928;SDS011;1474;51.460;7.150;2023-12-07T05:55:31;4.00;;;3.15;;
2928;SDS011;1474;51.460;7.150;2023-12-07T05:58:15;3.22;;;2.90;;
2928;SDS011;1474;51.460;7.150;2023-12-07T06:01:01;3.20;;;2.65;;
2928;SDS011;1474;51.460;7.150;2023-12-07T06:03:33;4.03;;;2.90;;
2928;SDS011;1474;51.460;7.150;2023-12-07T06:06:00;3.95;;;3.33;;
2928;SDS011;1474;51.460;7.150;2023-12-07T06:08:26;3.28;;;2.72;;
2928;SDS011;1474;51.460;7.150;2023-12-07T06:10:52;3.95;;;2.83;;
2928;SDS011;1474;51.460;7.150;2023-12-07T06:13:17;2.80;;;2.47;;
2928;SDS011;1474;51.460;7.150;2023-12-07T06:15:43;3.88;;;2.72;;
2928;SDS011;1474;51.460;7.150;2023-12-07T06:18:09;3.38;;;2.92;;
2928;SDS011;1474;51.460;7.150;2023-12-07T06:20:34;3.80;;;3.17;;
2928;SDS011;1474;51.460;7.150;2023-12-07T06:23:00;3.08;;;2.78;;
2928;SDS011;1474;51.460;7.150;2023-12-07T06:25:29;4.78;;;3.25;;
2928;SDS011;1474;51.460;7.150;2023-12-07T06:27:54;3.30;;;2.85;;
2928;SDS011;1474;51.460;7.150;2023-12-07T06:30:21;4.15;;;3.08;;
2928;SDS011;1474;51.460;7.150;2023-12-07T06:32:47;4.05;;;3.03;;
2928;SDS011;1474;51.460;7.150;2023-12-07T06:35:13;3.33;;;2.95;;
2928;SDS011;1474;51.460;7.150;2023-12-07T06:37:39;4.60;;;2.85;;
2928;SDS011;1474;51.460;7.150;2023-12-07T06:40:07;4.72;;;2.80;;
2928;SDS011;1474;51.460;7.150;2023-12-07T06:42:34;4.20;;;2.83;;
2928;SDS011;1474;51.460;7.150;2023-12-07T06:45:01;4.03;;;2.70;;
2928;SDS011;1474;51.460;7.150;2023-12-07T06:47:27;3.70;;;2.72;;
2928;SDS011;1474;51.460;7.150;2023-12-07T06:49:53;4.10;;;2.92;;
2928;SDS011;1474;51.460;7.150;2023-12-07T06:52:21;4.63;;;3.30;;
2928;SDS011;1474;51.460;7.150;2023-12-07T06:54:46;3.58;;;2.80;;
2928;SDS011;1474;51.460;7.150;2023-12-07T06:57:12;2.95;;;2.63;;
2928;SDS011;1474;51.460;7.150;2023-12-07T06:59:38;3.70;;;3.00;;
2928;SDS011;1474;51.460;7.150;2023-12-07T07:02:05;4.43;;;3.20;;
2928;SDS011;1474;51.460;7.150;2023-12-07T07:04:32;3.80;;;2.95;;
2928;SDS011;1474;51.460;7.150;2023-12-07T07:06:58;3.03;;;2.60;;
2928;SDS011;1474;51.460;7.150;2023-12-07T07:09:23;3.83;;;3.08;;
2928;SDS011;1474;51.460;7.150;2023-12-07T07:11:50;3.60;;;3.00;;
2928;SDS011;1474;51.460;7.150;2023-12-07T07:14:16;3.55;;;2.72;;
2928;SDS011;1474;51.460;7.150;2023-12-07T07:16:42;4.05;;;2.63;;
2928;SDS011;1474;51.460;7.150;2023-12-07T07:19:08;4.15;;;2.85;;
2928;SDS011;1474;51.460;7.150;2023-12-07T07:21:35;3.83;;;2.83;;
2928;SDS011;1474;51.460;7.150;2023-12-07T07:24:01;4.22;;;2.60;;
2928;SDS011;1474;51.460;7.150;2023-12-07T07:26:27;3.85;;;2.80;;
2928;SDS011;1474;51.460;7.150;2023-12-07T07:28:52;3.25;;;2.47;;
2928;SDS011;1474;51.460;7.150;2023-12-07T07:31:18;3.83;;;2.42;;
2928;SDS011;1474;51.460;7.150;2023-12-07T07:33:45;3.33;;;2.80;;
2928;SDS011;1474;51.460;7.150;2023-12-07T07:36:12;3.47;;;2.88;;
2928;SDS011;1474;51.460;7.150;2023-12-07T07:38:42;4.13;;;2.75;;
2928;SDS011;1474;51.460;7.150;2023-12-07T07:41:09;3.22;;;2.58;;
2928;SDS011;1474;51.460;7.150;2023-12-07T07:43:36;3.58;;;2.65;;
2928;SDS011;1474;51.460;7.150;2023-12-07T07:46:05;3.80;;;2.83;;
2928;SDS011;1474;51.460;7.150;2023-12-07T07:48:31;4.35;;;3.20;;
2928;SDS011;1474;51.460;7.150;2023-12-07T07:50:57;3.67;;;2.45;;
2928;SDS011;1474;51.460;7.150;2023-12-07T07:53:23;3.88;;;3.03;;
2928;SDS011;1474;51.460;7.150;2023-12-07T07:55:49;3.35;;;2.80;;
2928;SDS011;1474;51.460;7.150;2023-12-07T07:58:15;12.57;;;8.80;;
2928;SDS011;1474;51.460;7.150;2023-12-07T08:00:41;12.07;;;8.80;;
2928;SDS011;1474;51.460;7.150;2023-12-07T08:03:07;7.75;;;5.40;;
2928;SDS011;1474;51.460;7.150;2023-12-07T08:05:33;13.48;;;5.78;;
2928;SDS011;1474;51.460;7.150;2023-12-07T08:07:59;8.20;;;5.07;;
2928;SDS011;1474;51.460;7.150;2023-12-07T08:10:25;6.15;;;4.10;;
2928;SDS011;1474;51.460;7.150;2023-12-07T08:12:50;6.15;;;3.92;;
2928;SDS011;1474;51.460;7.150;2023-12-07T08:15:16;6.32;;;4.90;;
2928;SDS011;1474;51.460;7.150;2023-12-07T08:17:42;4.70;;;3.75;;
2928;SDS011;1474;51.460;7.150;2023-12-07T08:20:08;6.80;;;4.30;;
2928;SDS011;1474;51.460;7.150;2023-12-07T08:22:36;4.75;;;3.20;;
2928;SDS011;1474;51.460;7.150;2023-12-07T08:25:06;4.43;;;3.25;;
2928;SDS011;1474;51.460;7.150;2023-12-07T08:27:33;4.43;;;3.63;;
2928;SDS011;1474;51.460;7.150;2023-12-07T08:29:59;5.53;;;3.38;;
2928;SDS011;1474;51.460;7.150;2023-12-07T08:32:26;5.30;;;3.15;;
2928;SDS011;1474;51.460;7.150;2023-12-07T08:34:52;4.10;;;3.00;;
2928;SDS011;1474;51.460;7.150;2023-12-07T08:37:18;5.57;;;3.92;;
2928;SDS011;1474;51.460;7.150;2023-12-07T08:39:44;4.35;;;2.90;;
2928;SDS011;1474;51.460;7.150;2023-12-07T08:42:11;4.85;;;3.20;;
2928;SDS011;1474;51.460;7.150;2023-12-07T08:44:37;4.15;;;2.88;;
2928;SDS011;1474;51.460;7.150;2023-12-07T08:47:03;4.32;;;3.22;;
2928;SDS011;1474;51.460;7.150;2023-12-07T08:49:30;6.25;;;3.30;;
2928;SDS011;1474;51.460;7.150;2023-12-07T08:51:56;4.55;;;2.97;;
2928;SDS011;1474;51.460;7.150;2023-12-07T08:54:23;3.53;;;2.70;;
2928;SDS011;1474;51.460;7.150;2023-12-07T08:56:50;4.90;;;2.92;;
2928;SDS011;1474;51.460;7.150;2023-12-07T08:59:16;3.40;;;2.75;;
2928;SDS011;1474;51.460;7.150;2023-12-07T09:01:42;4.25;;;2.97;;
2928;SDS011;1474;51.460;7.150;2023-12-07T09:04:08;3.90;;;2.92;;
2928;SDS011;1474;51.460;7.150;2023-12-07T09:06:34;3.85;;;3.05;;
2928;SDS011;1474;51.460;7.150;2023-12-07T09:09:02;6.43;;;3.17;;
2928;SDS011;1474;51.460;7.150;2023-12-07T09:11:29;3.63;;;2.75;;
2928;SDS011;1474;51.460;7.150;2023-12-07T09:13:55;3.13;;;2.80;;
2928;SDS011;1474;51.460;7.150;2023-12-07T09:16:22;3.88;;;2.55;;
2928;SDS011;1474;51.460;7.150;2023-12-07T09:18:47;3.53;;;3.20;;
2928;SDS011;1474;51.460;7.150;2023-12-07T09:21:13;3.20;;;2.15;;
2928;SDS011;1474;51.460;7.150;2023-12-07T09:23:39;4.15;;;2.70;;
2928;SDS011;1474;51.460;7.150;2023-12-07T09:26:04;3.92;;;2.38;;
2928;SDS011;1474;51.460;7.150;2023-12-07T09:28:31;2.80;;;2.40;;
2928;SDS011;1474;51.460;7.150;2023-12-07T09:30:58;3.10;;;2.40;;
2928;SDS011;1474;51.460;7.150;2023-12-07T09:33:24;4.28;;;2.38;;
2928;SDS011;1474;51.460;7.150;2023-12-07T09:35:49;3.67;;;2.55;;
2928;SDS011;1474;51.460;7.150;2023-12-07T09:38:16;3.15;;;2.10;;
2928;SDS011;1474;51.460;7.150;2023-12-07T09:40:42;6.00;;;2.22;;
2928;SDS011;1474;51.460;7.150;2023-12-07T09:43:09;2.92;;;2.03;;
2928;SDS011;1474;51.460;7.150;2023-12-07T09:45:34;3.00;;;2.22;;
2928;SDS011;1474;51.460;7.150;2023-12-07T09:48:00;2.80;;;2.60;;
2928;SDS011;1474;51.460;7.150;2023-12-07T09:50:27;2.95;;;2.20;;
2928;SDS011;1474;51.460;7.150;2023-12-07T09:52:54;3.28;;;2.28;;
2928;SDS011;1474;51.460;7.150;2023-12-07T09:55:22;3.28;;;2.40;;
2928;SDS011;1474;51.460;7.150;2023-12-07T09:57:51;3.35;;;2.55;;
2928;SDS011;1474;51.460;7.150;2023-12-07T10:00:19;2.90;;;2.13;;
2928;SDS011;1474;51.460;7.150;2023-12-07T10:02:45;3.65;;;2.72;;
2928;SDS011;1474;51.460;7.150;2023-12-07T10:05:12;2.45;;;1.98;;
2928;SDS011;1474;51.460;7.150;2023-12-07T10:07:41;4.60;;;2.00;;
2928;SDS011;1474;51.460;7.150;2023-12-07T10:10:15;1.83;;;1.65;;
2928;SDS011;1474;51.460;7.150;2023-12-07T10:12:46;3.75;;;2.10;;
2928;SDS011;1474;51.460;7.150;2023-12-07T10:15:20;2.90;;;2.08;;
2928;SDS011;1474;51.460;7.150;2023-12-07T10:17:49;2.33;;;2.00;;
2928;SDS011;1474;51.460;7.150;2023-12-07T10:20:18;4.13;;;1.92;;
2928;SDS011;1474;51.460;7.150;2023-12-07T10:23:04;3.90;;;1.52;;
2928;SDS011;1474;51.460;7.150;2023-12-07T10:25:33;2.25;;;1.90;;
2928;SDS011;1474;51.460;7.150;2023-12-07T10:28:07;3.20;;;1.77;;
2928;SDS011;1474;51.460;7.150;2023-12-07T10:30:34;5.22;;;2.40;;
2928;SDS011;1474;51.460;7.150;2023-12-07T10:33:02;6.32;;;2.33;;
2928;SDS011;1474;51.460;7.150;2023-12-07T10:35:32;3.30;;;1.80;;
2928;SDS011;1474;51.460;7.150;2023-12-07T10:38:03;2.60;;;1.98;;
2928;SDS011;1474;51.460;7.150;2023-12-07T10:40:29;2.10;;;1.70;;
2928;SDS011;1474;51.460;7.150;2023-12-07T10:42:57;3.15;;;1.92;;
2928;SDS011;1474;51.460;7.150;2023-12-07T10:45:24;2.40;;;1.63;;
2928;SDS011;1474;51.460;7.150;2023-12-07T10:47:54;3.13;;;1.98;;
2928;SDS011;1474;51.460;7.150;2023-12-07T10:50:43;2.17;;;1.60;;
2928;SDS011;1474;51.460;7.150;2023-12-07T10:53:21;2.65;;;2.38;;
2928;SDS011;1474;51.460;7.150;2023-12-07T10:56:01;4.65;;;1.45;;
2928;SDS011;1474;51.460;7.150;2023-12-07T10:58:28;2.05;;;1.63;;
2928;SDS011;1474;51.460;7.150;2023-12-07T11:29:35;3.47;;;1.70;;
2928;SDS011;1474;51.460;7.150;2023-12-07T11:32:01;2.10;;;1.50;;
2928;SDS011;1474;51.460;7.150;2023-12-07T11:34:36;2.53;;;1.75;;
2928;SDS011;1474;51.460;7.150;2023-12-07T11:37:07;4.25;;;1.50;;
2928;SDS011;1474;51.460;7.150;2023-12-07T11:39:35;3.17;;;1.75;;
2928;SDS011;1474;51.460;7.150;2023-12-07T11:42:19;7.05;;;1.40;;
2928;SDS011;1474;51.460;7.150;2023-12-07T11:44:48;2.92;;;1.50;;
2928;SDS011;1474;51.460;7.150;2023-12-07T11:47:15;4.57;;;1.70;;
2928;SDS011;1474;51.460;7.150;2023-12-07T11:49:44;3.47;;;1.30;;
2928;SDS011;1474;51.460;7.150;2023-12-07T11:52:20;1.92;;;1.30;;
2928;SDS011;1474;51.460;7.150;2023-12-07T11:54:47;5.78;;;1.98;;
2928;SDS011;1474;51.460;7.150;2023-12-07T11:57:15;3.75;;;1.80;;
2928;SDS011;1474;51.460;7.150;2023-12-07T11:59:43;2.53;;;1.55;;
2928;SDS011;1474;51.460;7.150;2023-12-07T12:02:10;2.00;;;1.33;;
2928;SDS011;1474;51.460;7.150;2023-12-07T12:04:37;2.40;;;1.40;;
2928;SDS011;1474;51.460;7.150;2023-12-07T12:07:03;3.45;;;1.40;;
2928;SDS011;1474;51.460;7.150;2023-12-07T12:09:29;3.40;;;1.40;;
2928;SDS011;1474;51.460;7.150;2023-12-07T12:11:56;3.17;;;1.17;;
2928;SDS011;1474;51.460;7.150;2023-12-07T12:14:25;4.18;;;1.67;;
2928;SDS011;1474;51.460;7.150;2023-12-07T12:16:53;4.80;;;1.40;;
2928;SDS011;1474;51.460;7.150;2023-12-07T12:19:19;3.38;;;1.48;;
2928;SDS011;1474;51.460;7.150;2023-12-07T12:21:47;2.53;;;1.40;;
2928;SDS011;1474;51.460;7.150;2023-12-07T12:24:13;2.00;;;1.15;;
2928;SDS011;1474;51.460;7.150;2023-12-07T12:26:39;6.70;;;1.45;;
2928;SDS011;1474;51.460;7.150;2023-12-07T12:31:36;1.90;;;1.20;;
2928;SDS011;1474;51.460;7.150;2023-12-07T12:34:05;3.28;;;1.77;;
2928;SDS011;1474;51.460;7.150;2023-12-07T12:36:33;1.75;;;1.17;;
2928;SDS011;1474;51.460;7.150;2023-12-07T12:39:00;3.25;;;1.25;;
2928;SDS011;1474;51.460;7.150;2023-12-07T12:41:27;2.40;;;1.50;;
2928;SDS011;1474;51.460;7.150;2023-12-07T12:43:56;2.78;;;1.30;;
2928;SDS011;1474;51.460;7.150;2023-12-07T12:46:22;3.72;;;1.50;;
2928;SDS011;1474;51.460;7.150;2023-12-07T12:48:52;2.70;;;1.17;;
2928;SDS011;1474;51.460;7.150;2023-12-07T12:51:23;2.45;;;1.25;;
2928;SDS011;1474;51.460;7.150;2023-12-07T12:53:55;3.25;;;1.20;;
2928;SDS011;1474;51.460;7.150;2023-12-07T12:56:22;2.00;;;1.23;;
2928;SDS011;1474;51.460;7.150;2023-12-07T12:58:51;1.85;;;1.13;;
2928;SDS011;1474;51.460;7.150;2023-12-07T13:01:21;2.50;;;1.23;;
2928;SDS011;1474;51.460;7.150;2023-12-07T13:03:47;2.53;;;1.48;;
2928;SDS011;1474;51.460;7.150;2023-12-07T13:06:14;2.35;;;1.30;;
2928;SDS011;1474;51.460;7.150;2023-12-07T13:08:42;1.33;;;1.08;;
2928;SDS011;1474;51.460;7.150;2023-12-07T13:11:09;1.52;;;1.02;;
2928;SDS011;1474;51.460;7.150;2023-12-07T13:13:40;1.95;;;1.38;;
2928;SDS011;1474;51.460;7.150;2023-12-07T13:16:06;2.88;;;1.35;;
2928;SDS011;1474;51.460;7.150;2023-12-07T13:18:32;1.88;;;1.27;;
2928;SDS011;1474;51.460;7.150;2023-12-07T13:20:57;2.50;;;1.45;;
2928;SDS011;1474;51.460;7.150;2023-12-07T13:23:24;1.98;;;0.90;;
2928;SDS011;1474;51.460;7.150;2023-12-07T13:25:51;1.48;;;1.00;;
2928;SDS011;1474;51.460;7.150;2023-12-07T13:28:16;3.08;;;1.63;;
2928;SDS011;1474;51.460;7.150;2023-12-07T13:30:42;1.73;;;1.20;;
2928;SDS011;1474;51.460;7.150;2023-12-07T13:33:09;2.17;;;1.45;;
2928;SDS011;1474;51.460;7.150;2023-12-07T13:35:35;1.60;;;1.15;;
2928;SDS011;1474;51.460;7.150;2023-12-07T13:38:00;1.65;;;1.30;;
2928;SDS011;1474;51.460;7.150;2023-12-07T13:40:26;1.40;;;1.00;;
2928;SDS011;1474;51.460;7.150;2023-12-07T13:42:52;2.22;;;1.27;;
2928;SDS011;1474;51.460;7.150;2023-12-07T13:45:18;1.70;;;1.05;;
2928;SDS011;1474;51.460;7.150;2023-12-07T13:47:44;1.38;;;1.08;;
2928;SDS011;1474;51.460;7.150;2023-12-07T13:50:10;2.78;;;1.38;;
2928;SDS011;1474;51.460;7.150;2023-12-07T13:52:36;1.55;;;1.25;;
2928;SDS011;1474;51.460;7.150;2023-12-07T13:55:03;1.10;;;0.98;;
2928;SDS011;1474;51.460;7.150;2023-12-07T13:57:30;1.83;;;1.13;;
2928;SDS011;1474;51.460;7.150;2023-12-07T13:59:55;1.73;;;0.93;;
2928;SDS011;1474;51.460;7.150;2023-12-07T14:02:22;1.50;;;1.00;;
2928;SDS011;1474;51.460;7.150;2023-12-07T14:04:48;1.58;;;1.10;;
2928;SDS011;1474;51.460;7.150;2023-12-07T14:07:16;1.42;;;0.98;;
2928;SDS011;1474;51.460;7.150;2023-12-07T14:09:44;3.65;;;0.85;;
2928;SDS011;1474;51.460;7.150;2023-12-07T14:12:12;1.58;;;1.00;;
2928;SDS011;1474;51.460;7.150;2023-12-07T14:14:43;1.63;;;1.25;;
2928;SDS011;1474;51.460;7.150;2023-12-07T14:17:14;1.50;;;1.10;;
2928;SDS011;1474;51.460;7.150;2023-12-07T14:19:42;1.08;;;0.88;;
2928;SDS011;1474;51.460;7.150;2023-12-07T14:22:08;2.00;;;1.23;;
2928;SDS011;1474;51.460;7.150;2023-12-07T14:24:37;1.77;;;1.00;;
2928;SDS011;1474;51.460;7.150;2023-12-07T14:27:03;1.83;;;1.10;;
2928;SDS011;1474;51.460;7.150;2023-12-07T14:29:30;1.38;;;0.98;;
2928;SDS011;1474;51.460;7.150;2023-12-07T14:31:57;2.03;;;1.38;;
2928;SDS011;1474;51.460;7.150;2023-12-07T14:34:24;2.03;;;1.20;;
2928;SDS011;1474;51.460;7.150;2023-12-07T14:36:53;1.23;;;0.95;;
2928;SDS011;1474;51.460;7.150;2023-12-07T14:39:19;1.27;;;1.05;;
2928;SDS011;1474;51.460;7.150;2023-12-07T14:41:46;2.13;;;0.90;;
2928;SDS011;1474;51.460;7.150;2023-12-07T14:44:17;1.42;;;1.05;;
2928;SDS011;1474;51.460;7.150;2023-12-07T14:46:46;3.38;;;1.30;;
2928;SDS011;1474;51.460;7.150;2023-12-07T14:49:14;2.25;;;1.30;;
2928;SDS011;1474;51.460;7.150;2023-12-07T14:51:42;1.40;;;1.00;;
2928;SDS011;1474;51.460;7.150;2023-12-07T14:54:08;1.75;;;1.13;;
2928;SDS011;1474;51.460;7.150;2023-12-07T14:56:37;2.22;;;1.20;;
2928;SDS011;1474;51.460;7.150;2023-12-07T14:59:04;2.13;;;1.02;;
2928;SDS011;1474;51.460;7.150;2023-12-07T15:01:31;1.38;;;1.13;;
2928;SDS011;1474;51.460;7.150;2023-12-07T15:03:57;1.90;;;1.50;;
2928;SDS011;1474;51.460;7.150;2023-12-07T15:06:28;1.67;;;1.35;;
2928;SDS011;1474;51.460;7.150;2023-12-07T15:08:54;1.87;;;1.00;;
2928;SDS011;1474;51.460;7.150;2023-12-07T15:11:21;2.13;;;1.17;;
2928;SDS011;1474;51.460;7.150;2023-12-07T15:13:47;1.92;;;1.20;;
2928;SDS011;1474;51.460;7.150;2023-12-07T15:16:13;1.73;;;1.02;;
2928;SDS011;1474;51.460;7.150;2023-12-07T15:18:39;1.50;;;0.88;;
2928;SDS011;1474;51.460;7.150;2023-12-07T15:21:10;1.45;;;1.00;;
2928;SDS011;1474;51.460;7.150;2023-12-07T15:23:39;1.45;;;1.30;;
2928;SDS011;1474;51.460;7.150;2023-12-07T15:26:05;2.85;;;1.10;;
2928;SDS011;1474;51.460;7.150;2023-12-07T15:28:34;1.60;;;1.08;;
2928;SDS011;1474;51.460;7.150;2023-12-07T15:33:30;1.30;;;1.00;;
2928;SDS011;1474;51.460;7.150;2023-12-07T15:35:57;1.52;;;0.88;;
2928;SDS011;1474;51.460;7.150;2023-12-07T15:38:23;2.80;;;1.20;;
2928;SDS011;1474;51.460;7.150;2023-12-07T15:40:49;2.78;;;0.88;;
2928;SDS011;1474;51.460;7.150;2023-12-07T15:43:17;0.93;;;0.85;;
2928;SDS011;1474;51.460;7.150;2023-12-07T15:45:43;1.85;;;1.15;;
2928;SDS011;1474;51.460;7.150;2023-12-07T15:48:09;1.55;;;1.05;;
2928;SDS011;1474;51.460;7.150;2023-12-07T15:50:34;2.80;;;1.00;;
2928;SDS011;1474;51.460;7.150;2023-12-07T15:53:00;5.05;;;1.00;;
2928;SDS011;1474;51.460;7.150;2023-12-07T15:55:26;1.90;;;1.30;;
2928;SDS011;1474;51.460;7.150;2023-12-07T15:57:52;3.25;;;1.38;;
2928;SDS011;1474;51.460;7.150;2023-12-07T16:00:18;1.73;;;1.20;;
2928;SDS011;1474;51.460;7.150;2023-12-07T16:02:44;1.55;;;1.08;;
2928;SDS011;1474;51.460;7.150;2023-12-07T16:05:09;1.50;;;1.10;;
2928;SDS011;1474;51.460;7.150;2023-12-07T16:07:35;1.52;;;1.27;;
2928;SDS011;1474;51.460;7.150;2023-12-07T16:10:04;2.67;;;1.10;;
2928;SDS011;1474;51.460;7.150;2023-12-07T16:12:33;3.30;;;1.00;;
2928;SDS011;1474;51.460;7.150;2023-12-07T16:15:03;2.42;;;1.20;;
2928;SDS011;1474;51.460;7.150;2023-12-07T16:17:29;1.08;;;0.90;;
2928;SDS011;1474;51.460;7.150;2023-12-07T16:19:56;2.70;;;1.10;;
2928;SDS011;1474;51.460;7.150;2023-12-07T16:22:22;1.50;;;1.02;;
2928;SDS011;1474;51.460;7.150;2023-12-07T16:24:47;2.95;;;1.27;;
2928;SDS011;1474;51.460;7.150;2023-12-07T16:27:15;3.30;;;1.30;;
2928;SDS011;1474;51.460;7.150;2023-12-07T16:29:42;2.50;;;1.38;;